createdAt,value
2019-05-25T00:00:06.368Z,73.40
2019-05-25T00:01:13.535Z,73.50
2019-05-25T00:02:20.898Z,73.50
2019-05-25T00:03:27.536Z,73.90
2019-05-25T00:04:32.933Z,74.20
2019-05-25T00:05:40.184Z,74.30
2019-05-25T00:06:48.320Z,74.50
2019-05-25T00:07:53.481Z,74.60
2019-05-25T00:08:59.054Z,74.70
2019-05-25T00:10:04.543Z,74.90
2019-05-25T00:11:09.924Z,75.00
2019-05-25T00:12:14.702Z,75.30
2019-05-25T00:13:21.317Z,75.20
2019-05-25T00:14:26.199Z,75.40
2019-05-25T00:15:31.672Z,75.50
2019-05-25T00:16:44.271Z,75.70
2019-05-25T00:17:51.728Z,75.80
2019-05-25T00:18:56.452Z,75.90
2019-05-25T00:20:04.872Z,75.90
2019-05-25T00:21:13.199Z,75.90
2019-05-25T00:22:16.881Z,75.90
2019-05-25T00:23:21.659Z,75.90
2019-05-25T00:27:04.923Z,75.90
2019-05-25T00:28:24.166Z,75.70
2019-05-25T00:29:29.729Z,75.70
2019-05-25T00:30:34.698Z,76.10
2019-05-25T00:31:41.174Z,76.20
2019-05-25T00:32:46.226Z,76.40
2019-05-25T00:33:51.606Z,76.20
2019-05-25T00:34:59.636Z,76.50
2019-05-25T00:36:05.156Z,76.60
2019-05-25T00:37:09.971Z,76.60
2019-05-25T00:38:15.827Z,76.80
2019-05-25T00:39:22.658Z,76.90
2019-05-25T00:40:28.013Z,77.10
2019-05-25T00:41:32.746Z,77.40
2019-05-25T00:42:38.104Z,77.40
2019-05-25T00:43:42.902Z,77.70
2019-05-25T00:44:48.624Z,77.60
2019-05-25T00:45:53.429Z,77.70
2019-05-25T00:47:01.525Z,77.90
2019-05-25T00:48:06.392Z,78.20
2019-05-25T00:49:12.201Z,78.50
2019-05-25T00:50:17.327Z,78.70
2019-05-25T00:51:22.767Z,79.00
2019-05-25T00:52:27.607Z,79.30
2019-05-25T00:53:32.911Z,79.50
2019-05-25T00:54:37.705Z,79.80
2019-05-25T00:55:43.071Z,80.00
2019-05-25T00:56:48.235Z,80.10
2019-05-25T00:57:54.193Z,80.40
2019-05-25T00:59:01.676Z,80.70
2019-05-25T01:00:08.075Z,80.90
2019-05-25T01:01:15.514Z,81.30
2019-05-25T01:02:20.841Z,81.40
2019-05-25T01:03:25.884Z,81.70
2019-05-25T01:04:31.265Z,82.00
2019-05-25T01:05:36.039Z,81.90
2019-05-25T01:06:41.409Z,82.10
2019-05-25T01:07:46.981Z,82.20
2019-05-25T01:08:52.486Z,82.90
2019-05-25T01:09:57.478Z,82.40
2019-05-25T01:11:02.893Z,82.60
2019-05-25T01:12:07.708Z,82.80
2019-05-25T01:13:13.177Z,82.90
2019-05-25T01:14:18.477Z,83.20
2019-05-25T01:15:24.961Z,83.40
2019-05-25T01:16:30.301Z,83.50
2019-05-25T01:17:36.043Z,83.90
2019-05-25T01:18:44.023Z,84.00
2019-05-25T01:19:50.169Z,84.30
2019-05-25T01:20:55.457Z,84.60
2019-05-25T01:22:00.813Z,84.60
2019-05-25T01:23:05.729Z,85.00
2019-05-25T01:24:11.145Z,85.10
2019-05-25T01:25:22.309Z,85.40
2019-05-25T01:26:27.765Z,85.60
2019-05-25T01:27:32.492Z,85.80
2019-05-25T01:28:40.609Z,86.10
2019-05-25T01:29:45.644Z,86.50
2019-05-25T01:30:51.198Z,86.70
2019-05-25T01:31:56.418Z,86.90
2019-05-25T01:33:04.912Z,87.20
2019-05-25T01:34:10.101Z,87.50
2019-05-25T01:35:19.120Z,87.70
2019-05-25T01:36:24.127Z,87.70
2019-05-25T01:37:29.919Z,88.00
2019-05-25T01:38:34.751Z,88.70
2019-05-25T01:39:40.100Z,88.20
2019-05-25T01:40:45.242Z,88.60
2019-05-25T01:41:50.592Z,88.90
2019-05-25T01:42:55.350Z,89.10
2019-05-25T01:44:01.335Z,89.30
2019-05-25T01:45:07.193Z,89.50
2019-05-25T01:46:12.990Z,89.80
2019-05-25T01:47:17.919Z,90.00
2019-05-25T01:48:24.005Z,90.00
2019-05-25T01:49:29.549Z,90.10
2019-05-25T01:50:36.137Z,90.30
2019-05-25T01:51:40.904Z,90.40
2019-05-25T01:52:46.219Z,90.50
2019-05-25T01:53:51.134Z,90.60
2019-05-25T01:54:59.961Z,90.70
2019-05-25T01:56:03.001Z,90.90
2019-05-25T01:57:08.315Z,90.90
2019-05-25T01:58:13.059Z,91.10
2019-05-25T01:59:18.448Z,91.10
2019-05-25T02:00:23.277Z,91.30
2019-05-25T02:01:28.669Z,91.40
2019-05-25T02:02:33.555Z,91.50
2019-05-25T02:03:39.258Z,91.70
2019-05-25T02:04:44.078Z,91.80
2019-05-25T02:05:49.473Z,92.00
2019-05-25T02:06:54.209Z,92.20
2019-05-25T02:07:59.638Z,92.30
2019-05-25T02:09:06.042Z,92.50
2019-05-25T02:10:12.268Z,92.80
2019-05-25T02:11:17.057Z,93.00
2019-05-25T02:12:22.429Z,93.10
2019-05-25T02:13:27.552Z,93.30
2019-05-25T02:14:33.067Z,93.50
2019-05-25T02:15:37.878Z,93.70
2019-05-25T02:16:44.085Z,93.90
2019-05-25T02:17:48.932Z,94.00
2019-05-25T02:18:54.744Z,94.20
2019-05-25T02:19:59.560Z,94.30
2019-05-25T02:21:05.127Z,94.50
2019-05-25T02:22:10.026Z,94.70
2019-05-25T02:23:15.799Z,94.90
2019-05-25T02:24:20.738Z,95.10
2019-05-25T02:25:30.231Z,95.30
2019-05-25T02:26:42.360Z,95.40
2019-05-25T02:27:47.717Z,95.60
2019-05-25T02:28:53.079Z,95.90
2019-05-25T02:29:59.185Z,96.10
2019-05-25T02:31:03.993Z,96.30
2019-05-25T02:32:09.674Z,96.40
2019-05-25T02:33:14.864Z,96.70
2019-05-25T02:34:20.540Z,96.80
2019-05-25T02:35:28.056Z,96.90
2019-05-25T02:36:33.341Z,97.00
2019-05-25T02:37:38.545Z,97.10
2019-05-25T02:38:44.953Z,97.20
2019-05-25T02:39:49.728Z,97.50
2019-05-25T02:40:55.910Z,97.70
2019-05-25T02:42:00.666Z,97.80
2019-05-25T02:43:06.405Z,98.30
2019-05-25T02:44:11.188Z,98.10
2019-05-25T02:45:16.613Z,98.20
2019-05-25T02:46:23.918Z,98.30
2019-05-25T02:47:29.671Z,98.50
2019-05-25T02:48:34.491Z,98.60
2019-05-25T02:49:40.664Z,98.70
2019-05-25T02:50:45.497Z,98.80
2019-05-25T02:51:50.832Z,98.90
2019-05-25T02:52:55.589Z,99.00
2019-05-25T02:54:01.437Z,99.10
2019-05-25T02:55:07.677Z,99.40
2019-05-25T02:56:13.018Z,99.50
2019-05-25T02:57:17.722Z,99.70
2019-05-25T02:58:23.045Z,99.80
2019-05-25T02:59:27.840Z,99.90
2019-05-25T03:00:35.075Z,99.90
2019-05-25T03:01:39.912Z,99.90
2019-05-25T03:02:45.488Z,99.90
2019-05-25T03:03:50.317Z,99.90
2019-05-25T03:04:57.433Z,99.90
2019-05-25T03:06:03.472Z,99.90
2019-05-25T03:07:09.380Z,99.90
2019-05-25T03:08:14.148Z,99.90
2019-05-25T03:09:21.066Z,99.90
2019-05-25T03:10:28.922Z,99.90
2019-05-25T03:11:34.611Z,99.90
2019-05-25T03:12:39.680Z,99.90
2019-05-25T03:13:45.398Z,99.90
2019-05-25T03:14:50.284Z,99.90
2019-05-25T03:15:55.680Z,99.90
2019-05-25T03:17:00.448Z,99.90
2019-05-25T03:18:05.783Z,99.90
2019-05-25T03:19:10.509Z,99.90
2019-05-25T03:20:16.053Z,99.90
2019-05-25T03:21:20.792Z,99.90
2019-05-25T03:22:26.107Z,99.90
2019-05-25T03:23:31.146Z,99.90
2019-05-25T03:24:36.574Z,99.90
2019-05-25T03:25:49.684Z,99.90
2019-05-25T03:26:48.407Z,99.90
2019-05-25T03:27:53.147Z,99.90
2019-05-25T03:28:58.641Z,99.90
2019-05-25T03:30:04.323Z,99.90
2019-05-25T03:31:09.732Z,99.90
2019-05-25T03:32:14.556Z,99.90
2019-05-25T03:33:19.876Z,99.90
2019-05-25T03:34:24.606Z,99.90
2019-05-25T03:35:29.939Z,99.90
2019-05-25T03:36:35.341Z,99.90
2019-05-25T03:37:40.633Z,99.90
2019-05-25T03:38:45.446Z,99.90
2019-05-25T03:39:50.769Z,99.90
2019-05-25T03:40:55.577Z,99.90
2019-05-25T03:42:00.893Z,99.90
2019-05-25T03:43:06.383Z,99.90
2019-05-25T03:46:26.990Z,99.90
2019-05-25T03:47:32.224Z,99.90
2019-05-25T03:48:36.818Z,99.90
2019-05-25T03:49:42.018Z,99.90
2019-05-25T03:50:46.623Z,99.90
2019-05-25T03:51:51.903Z,99.90
2019-05-25T03:52:56.541Z,99.90
2019-05-25T03:54:01.704Z,99.90
2019-05-25T03:55:06.922Z,99.90
2019-05-25T03:56:12.206Z,99.90
2019-05-25T03:57:16.863Z,99.90
2019-05-25T03:58:22.190Z,99.90
2019-05-25T03:59:26.873Z,99.90
2019-05-25T04:00:37.673Z,99.90
2019-05-25T04:01:42.284Z,99.90
2019-05-25T04:02:47.625Z,99.90
2019-05-25T04:03:52.245Z,99.90
2019-05-25T04:04:57.675Z,99.90
2019-05-25T04:06:02.595Z,99.90
2019-05-25T04:07:07.841Z,99.90
2019-05-25T04:08:12.477Z,99.90
2019-05-25T04:09:17.664Z,99.90
2019-05-25T04:10:22.329Z,99.90
2019-05-25T04:11:30.480Z,99.90
2019-05-25T04:12:35.599Z,99.90
2019-05-25T04:13:40.842Z,99.90
2019-05-25T04:14:45.436Z,99.90
2019-05-25T04:15:50.667Z,99.90
2019-05-25T04:16:55.838Z,99.90
2019-05-25T04:18:01.053Z,99.90
2019-05-25T04:19:06.147Z,99.90
2019-05-25T04:20:11.527Z,99.90
2019-05-25T04:21:16.405Z,99.90
2019-05-25T04:22:21.752Z,99.90
2019-05-25T04:23:26.533Z,99.90
2019-05-25T04:24:32.022Z,99.90
2019-05-25T04:25:37.286Z,99.90
2019-05-25T04:26:42.512Z,99.90
2019-05-25T04:27:47.408Z,99.90
2019-05-25T04:28:58.244Z,99.90
2019-05-25T04:30:03.459Z,99.90
2019-05-25T04:31:09.319Z,99.90
2019-05-25T04:32:17.026Z,99.90
2019-05-25T04:33:26.446Z,99.90
2019-05-25T04:34:31.452Z,99.90
2019-05-25T04:35:36.683Z,99.90
2019-05-25T04:36:41.295Z,99.90
2019-05-25T04:37:46.986Z,99.90
2019-05-25T04:38:51.728Z,99.90
2019-05-25T04:39:57.175Z,99.90
2019-05-25T04:41:02.087Z,99.90
2019-05-25T04:42:07.582Z,99.90
2019-05-25T04:43:12.215Z,99.90
2019-05-25T04:44:17.784Z,99.90
2019-05-25T04:45:22.748Z,99.90
2019-05-25T04:46:28.204Z,99.90
2019-05-25T04:47:33.031Z,99.90
2019-05-25T04:48:38.423Z,99.90
2019-05-25T04:49:44.960Z,99.90
2019-05-25T04:50:50.331Z,99.90
2019-05-25T04:51:55.472Z,99.90
2019-05-25T04:53:00.731Z,99.90
2019-05-25T04:54:05.771Z,99.90
2019-05-25T04:55:11.419Z,99.90
2019-05-25T04:56:16.412Z,99.90
2019-05-25T04:57:21.711Z,99.90
2019-05-25T04:58:26.784Z,99.90
2019-05-25T04:59:31.985Z,99.90
2019-05-25T05:00:38.695Z,99.90
2019-05-25T05:01:43.960Z,99.90
2019-05-25T05:02:48.665Z,99.90
2019-05-25T05:03:53.859Z,99.90
2019-05-25T05:04:58.526Z,99.90
2019-05-25T05:06:03.760Z,99.90
2019-05-25T05:07:08.450Z,99.90
2019-05-25T05:08:13.929Z,99.90
2019-05-25T05:09:18.564Z,99.90
2019-05-25T05:10:23.780Z,99.90
2019-05-25T05:11:28.588Z,99.90
2019-05-25T05:12:33.975Z,99.90
2019-05-25T05:13:38.743Z,99.90
2019-05-25T05:14:43.976Z,99.90
2019-05-25T05:15:48.660Z,99.90
2019-05-25T05:16:53.906Z,99.90
2019-05-25T05:17:58.594Z,99.90
2019-05-25T05:19:06.280Z,99.90
2019-05-25T05:20:11.231Z,99.90
2019-05-25T05:21:17.683Z,99.90
2019-05-25T05:22:23.400Z,99.90
2019-05-25T05:23:32.700Z,99.90
2019-05-25T05:24:37.668Z,99.90
2019-05-25T05:25:43.362Z,99.90
2019-05-25T05:26:55.834Z,99.90
2019-05-25T05:27:55.003Z,99.90
2019-05-25T05:28:59.807Z,99.90
2019-05-25T05:30:05.625Z,99.90
2019-05-25T05:31:22.785Z,99.90
2019-05-25T05:32:27.035Z,99.90
2019-05-25T05:33:24.327Z,99.90
2019-05-25T05:34:29.761Z,99.90
2019-05-25T05:35:38.721Z,99.90
2019-05-25T05:36:42.502Z,99.90
2019-05-25T05:37:47.567Z,99.90
2019-05-25T05:38:53.653Z,99.90
2019-05-25T05:40:07.470Z,99.90
2019-05-25T05:41:14.007Z,99.90
2019-05-25T05:42:22.016Z,99.90
2019-05-25T05:43:30.174Z,99.90
2019-05-25T05:44:37.338Z,99.90
2019-05-25T05:45:44.361Z,99.90
2019-05-25T05:46:50.471Z,99.90
2019-05-25T05:47:59.036Z,99.90
2019-05-25T05:49:04.186Z,99.90
2019-05-25T05:50:12.203Z,99.90
2019-05-25T05:51:21.550Z,99.90
2019-05-25T05:52:30.900Z,99.90
2019-05-25T05:53:38.106Z,99.90
2019-05-25T05:54:51.167Z,99.90
2019-05-25T05:55:58.843Z,99.90
2019-05-25T05:57:12.163Z,99.90
2019-05-25T05:58:10.397Z,99.90
2019-05-25T05:59:15.690Z,99.90
2019-05-25T06:00:22.760Z,99.90
2019-05-25T06:01:28.976Z,99.90
2019-05-25T06:02:33.657Z,99.90
2019-05-25T06:03:39.115Z,99.90
2019-05-25T06:04:47.095Z,99.90
2019-05-25T06:05:52.570Z,99.90
2019-05-25T06:06:59.058Z,99.90
2019-05-25T06:08:04.228Z,99.90
2019-05-25T06:09:09.324Z,99.90
2019-05-25T06:10:14.673Z,99.90
2019-05-25T06:11:19.755Z,99.90
2019-05-25T06:12:25.019Z,99.90
2019-05-25T06:13:32.483Z,99.90
2019-05-25T06:14:38.456Z,99.90
2019-05-25T06:15:43.287Z,99.90
2019-05-25T06:16:49.864Z,99.90
2019-05-25T06:17:54.518Z,99.90
2019-05-25T06:18:59.728Z,99.90
2019-05-25T06:20:04.963Z,99.90
2019-05-25T06:21:10.256Z,99.90
2019-05-25T06:22:14.920Z,99.90
2019-05-25T06:23:20.724Z,99.90
2019-05-25T06:24:26.662Z,99.90
2019-05-25T06:25:37.318Z,99.90
2019-05-25T06:26:41.905Z,99.90
2019-05-25T06:27:47.103Z,99.90
2019-05-25T06:28:52.087Z,99.90
2019-05-25T06:30:00.995Z,99.90
2019-05-25T06:31:05.873Z,99.90
2019-05-25T06:32:13.854Z,99.90
2019-05-25T06:33:18.455Z,99.90
2019-05-25T06:34:23.708Z,99.90
2019-05-25T06:35:29.546Z,99.90
2019-05-25T06:36:35.281Z,99.90
2019-05-25T06:37:40.170Z,99.90
2019-05-25T06:38:45.521Z,99.90
2019-05-25T06:39:50.239Z,99.90
2019-05-25T06:40:55.983Z,99.90
2019-05-25T06:42:03.987Z,99.90
2019-05-25T06:43:09.226Z,99.90
2019-05-25T06:44:13.883Z,99.90
2019-05-25T06:45:19.685Z,99.90
2019-05-25T06:46:24.331Z,99.90
2019-05-25T06:47:32.437Z,99.90
2019-05-25T06:48:37.686Z,99.90
2019-05-25T06:49:43.091Z,99.90
2019-05-25T06:50:47.980Z,99.90
2019-05-25T06:51:53.361Z,99.90
2019-05-25T06:52:58.308Z,99.90
2019-05-25T06:54:03.764Z,99.90
2019-05-25T06:56:24.330Z,99.90
2019-05-25T06:57:42.480Z,99.90
2019-05-25T06:58:39.251Z,99.90
2019-05-25T06:59:44.469Z,99.90
2019-05-25T07:00:49.161Z,99.90
2019-05-25T07:01:54.844Z,99.90
2019-05-25T07:03:00.767Z,99.90
2019-05-25T07:04:10.411Z,99.90
2019-05-25T07:05:12.583Z,99.90
2019-05-25T07:06:21.155Z,99.90
2019-05-25T07:07:27.523Z,99.90
2019-05-25T07:08:38.572Z,99.90
2019-05-25T07:09:43.425Z,99.90
2019-05-25T07:10:48.634Z,99.90
2019-05-25T07:11:53.284Z,99.90
2019-05-25T07:13:00.571Z,99.90
2019-05-25T07:14:05.337Z,99.90
2019-05-25T07:15:13.967Z,99.90
2019-05-25T07:16:19.091Z,99.90
2019-05-25T07:17:26.426Z,99.90
2019-05-25T07:18:31.135Z,99.90
2019-05-25T07:19:36.727Z,99.90
2019-05-25T07:20:41.439Z,99.90
2019-05-25T07:21:46.988Z,99.90
2019-05-25T07:22:51.829Z,99.90
2019-05-25T07:24:01.737Z,99.90
2019-05-25T07:25:08.846Z,99.90
2019-05-25T07:26:14.367Z,99.90
2019-05-25T07:27:19.125Z,99.90
2019-05-25T07:28:24.344Z,99.90
2019-05-25T07:29:32.146Z,99.90
2019-05-25T07:30:37.367Z,99.90
2019-05-25T07:31:42.094Z,99.90
2019-05-25T07:32:55.187Z,99.90
2019-05-25T07:33:59.807Z,99.90
2019-05-25T07:35:06.549Z,99.90
2019-05-25T07:36:12.208Z,99.90
2019-05-25T07:37:17.499Z,99.90
2019-05-25T07:38:22.585Z,99.90
2019-05-25T07:39:30.592Z,99.90
2019-05-25T07:40:37.196Z,99.90
2019-05-25T07:41:42.720Z,99.90
2019-05-25T07:42:47.688Z,99.90
2019-05-25T07:43:53.067Z,99.90
2019-05-25T07:44:58.103Z,99.90
2019-05-25T07:46:03.638Z,99.90
2019-05-25T07:47:08.284Z,99.90
2019-05-25T07:48:14.087Z,99.90
2019-05-25T07:49:18.735Z,99.90
2019-05-25T07:50:24.634Z,99.90
2019-05-25T07:51:29.295Z,99.90
2019-05-25T07:52:34.511Z,99.90
2019-05-25T07:53:39.157Z,99.90
2019-05-25T07:54:44.383Z,99.90
2019-05-25T07:55:49.084Z,99.90
2019-05-25T07:56:54.931Z,99.90
2019-05-25T07:58:15.817Z,99.90
2019-05-25T07:59:08.665Z,99.90
2019-05-25T08:00:13.927Z,99.90
2019-05-25T08:01:20.183Z,99.90
2019-05-25T08:02:25.159Z,99.90
2019-05-25T08:03:30.927Z,99.90
2019-05-25T08:04:37.188Z,99.90
2019-05-25T08:05:45.924Z,99.90
2019-05-25T08:06:50.571Z,99.90
2019-05-25T08:07:55.782Z,99.90
2019-05-25T08:09:03.322Z,99.90
2019-05-25T08:10:09.107Z,99.90
2019-05-25T08:11:16.884Z,99.90
2019-05-25T08:12:22.354Z,99.90
2019-05-25T08:13:27.189Z,99.90
2019-05-25T08:14:32.598Z,99.90
2019-05-25T08:15:38.816Z,99.90
2019-05-25T08:16:44.100Z,99.90
2019-05-25T08:17:51.433Z,99.90
2019-05-25T08:19:00.014Z,99.90
2019-05-25T08:20:05.690Z,99.90
2019-05-25T08:21:11.815Z,99.90
2019-05-25T08:22:16.496Z,99.90
2019-05-25T08:23:24.830Z,99.90
2019-05-25T08:24:30.762Z,99.90
2019-05-25T08:25:36.939Z,99.90
2019-05-25T08:26:47.204Z,99.90
2019-05-25T08:27:52.842Z,99.90
2019-05-25T08:29:01.329Z,99.90
2019-05-25T08:30:10.340Z,99.90
2019-05-25T08:31:18.819Z,99.90
2019-05-25T08:32:24.131Z,99.90
2019-05-25T08:33:29.508Z,99.90
2019-05-25T08:34:37.951Z,99.90
2019-05-25T08:35:46.359Z,99.90
2019-05-25T08:36:52.750Z,99.90
2019-05-25T08:38:00.517Z,99.90
2019-05-25T08:39:08.519Z,99.90
2019-05-25T08:40:14.191Z,99.90
2019-05-25T08:41:20.084Z,99.90
2019-05-25T08:42:28.127Z,99.90
2019-05-25T08:43:39.895Z,99.90
2019-05-25T08:44:44.578Z,99.90
2019-05-25T08:45:50.330Z,99.90
2019-05-25T08:46:55.589Z,99.90
2019-05-25T08:48:03.469Z,99.90
2019-05-25T08:49:08.299Z,99.90
2019-05-25T08:50:19.650Z,99.90
2019-05-25T08:51:28.302Z,99.90
2019-05-25T08:52:36.818Z,99.90
2019-05-25T08:53:46.580Z,99.90
2019-05-25T08:54:50.764Z,99.90
2019-05-25T08:55:55.679Z,99.90
2019-05-25T08:57:01.092Z,99.90
2019-05-25T08:58:06.424Z,99.90
2019-05-25T08:59:11.616Z,99.90
2019-05-25T09:00:16.318Z,99.90
2019-05-25T09:01:30.742Z,99.90
2019-05-25T09:02:36.975Z,99.90
2019-05-25T09:03:42.598Z,99.90
2019-05-25T09:04:47.827Z,99.90
2019-05-25T09:05:53.048Z,99.90
2019-05-25T09:07:00.015Z,99.90
2019-05-25T09:08:05.634Z,99.90
2019-05-25T09:09:10.780Z,99.90
2019-05-25T09:10:17.994Z,99.90
2019-05-25T09:11:27.146Z,99.90
2019-05-25T09:12:32.720Z,99.90
2019-05-25T09:13:37.381Z,99.90
2019-05-25T09:14:42.607Z,99.90
2019-05-25T09:15:47.272Z,99.90
2019-05-25T09:16:53.642Z,99.90
2019-05-25T09:17:59.908Z,99.90
2019-05-25T09:19:07.863Z,99.90
2019-05-25T09:20:12.870Z,99.90
2019-05-25T09:21:31.512Z,99.90
2019-05-25T09:22:37.666Z,99.90
2019-05-25T09:23:48.851Z,99.90
2019-05-25T09:24:56.208Z,99.90
2019-05-25T09:26:01.495Z,99.90
2019-05-25T09:27:06.241Z,99.90
2019-05-25T09:28:11.486Z,99.90
2019-05-25T09:29:16.667Z,99.90
2019-05-25T09:30:23.495Z,99.90
2019-05-25T09:31:29.175Z,99.90
2019-05-25T09:32:34.684Z,99.90
2019-05-25T09:33:39.987Z,99.90
2019-05-25T09:34:47.032Z,99.90
2019-05-25T09:35:52.114Z,99.90
2019-05-25T09:36:58.099Z,99.90
2019-05-25T09:38:05.138Z,99.90
2019-05-25T09:39:12.421Z,99.90
2019-05-25T09:40:17.365Z,99.90
2019-05-25T09:41:22.563Z,99.90
2019-05-25T09:42:27.203Z,99.90
2019-05-25T09:43:36.905Z,99.90
2019-05-25T09:44:41.564Z,99.90
2019-05-25T09:45:46.745Z,99.90
2019-05-25T09:46:51.378Z,99.90
2019-05-25T09:47:56.707Z,99.90
2019-05-25T09:49:01.426Z,99.90
2019-05-25T09:50:07.059Z,99.90
2019-05-25T09:51:15.763Z,99.90
2019-05-25T09:52:23.811Z,99.90
2019-05-25T09:53:30.299Z,99.90
2019-05-25T09:54:35.515Z,99.90
2019-05-25T09:55:40.579Z,99.90
2019-05-25T09:56:46.807Z,99.90
2019-05-25T09:57:51.680Z,99.90
2019-05-25T09:58:57.215Z,99.90
2019-05-25T10:00:06.971Z,99.90
2019-05-25T10:01:12.191Z,99.90
2019-05-25T10:02:16.905Z,99.90
2019-05-25T10:03:23.175Z,99.90
2019-05-25T10:04:32.030Z,99.90
2019-05-25T10:05:37.594Z,99.90
2019-05-25T10:06:42.298Z,99.90
2019-05-25T10:07:47.931Z,99.90
2019-05-25T10:08:52.893Z,99.90
2019-05-25T10:10:01.299Z,99.90
2019-05-25T10:11:12.783Z,99.90
2019-05-25T10:12:24.252Z,99.90
2019-05-25T10:13:37.157Z,99.90
2019-05-25T10:14:42.977Z,99.90
2019-05-25T10:15:48.179Z,99.90
2019-05-25T10:16:53.760Z,99.90
2019-05-25T10:18:00.484Z,99.90
2019-05-25T10:19:12.680Z,99.90
2019-05-25T10:20:21.049Z,99.90
2019-05-25T10:21:29.201Z,99.90
2019-05-25T10:22:38.501Z,99.90
2019-05-25T10:23:45.958Z,99.90
2019-05-25T10:24:50.620Z,99.90
2019-05-25T10:25:55.840Z,99.90
2019-05-25T10:27:01.434Z,99.90
2019-05-25T10:28:15.640Z,99.90
2019-05-25T10:29:36.060Z,99.90
2019-05-25T10:30:32.970Z,99.90
2019-05-25T10:31:44.990Z,99.90
2019-05-25T10:32:55.095Z,99.90
2019-05-25T10:34:06.936Z,99.90
2019-05-25T10:35:13.344Z,99.90
2019-05-25T10:36:19.844Z,99.90
2019-05-25T10:37:25.179Z,99.90
2019-05-25T10:38:30.440Z,99.90
2019-05-25T10:39:46.503Z,99.90
2019-05-25T10:40:58.411Z,99.90
2019-05-25T10:42:02.970Z,99.90
2019-05-25T10:43:08.400Z,99.90
2019-05-25T10:44:13.991Z,99.90
2019-05-25T10:45:20.570Z,99.90
2019-05-25T10:46:26.135Z,99.90
2019-05-25T10:47:33.647Z,99.90
2019-05-25T10:48:42.339Z,99.90
2019-05-25T10:49:51.955Z,99.90
2019-05-25T10:50:57.572Z,99.90
2019-05-25T10:52:02.385Z,99.90
2019-05-25T10:53:09.440Z,99.90
2019-05-25T10:54:14.128Z,99.90
2019-05-25T10:55:19.703Z,99.90
2019-05-25T10:56:29.965Z,99.90
2019-05-25T10:57:36.681Z,99.90
2019-05-25T10:58:41.648Z,99.70
2019-05-25T10:59:53.305Z,96.70
2019-05-25T11:00:57.287Z,95.00
2019-05-25T11:02:11.467Z,92.30
2019-05-25T11:03:19.094Z,90.50
2019-05-25T11:04:25.202Z,87.40
2019-05-25T11:05:31.043Z,84.40
2019-05-25T11:06:36.915Z,82.10
2019-05-25T11:07:43.101Z,77.90
2019-05-25T11:08:48.404Z,73.70
2019-05-25T11:09:54.400Z,70.90
2019-05-25T11:11:00.731Z,67.70
2019-05-25T11:12:11.815Z,63.20
2019-05-25T11:13:18.312Z,58.70
2019-05-25T11:14:24.983Z,55.70
2019-05-25T11:15:31.183Z,53.90
2019-05-25T11:16:36.073Z,51.10
2019-05-25T11:17:41.814Z,50.60
2019-05-25T11:18:49.795Z,48.60
2019-05-25T11:20:02.279Z,46.60
2019-05-25T11:21:07.092Z,44.10
2019-05-25T11:22:16.846Z,42.80
2019-05-25T11:23:22.997Z,42.00
2019-05-25T11:24:30.376Z,41.00
2019-05-25T11:26:40.090Z,58.90
2019-05-25T11:27:49.037Z,58.50
2019-05-25T11:28:56.409Z,37.00
2019-05-25T11:30:08.882Z,36.60
2019-05-25T11:31:08.787Z,37.00
2019-05-25T11:32:16.493Z,35.90
2019-05-25T11:33:28.177Z,35.80
2019-05-25T11:34:38.237Z,35.50
2019-05-25T11:35:58.470Z,35.00
2019-05-25T11:37:15.508Z,34.50
2019-05-25T11:38:41.483Z,34.20
2019-05-25T11:40:02.689Z,34.90
2019-05-25T11:41:20.088Z,34.50
2019-05-25T11:42:31.113Z,33.70
2019-05-25T11:43:43.541Z,33.70
2019-05-25T11:44:58.748Z,33.10
2019-05-25T11:46:04.687Z,32.50
2019-05-25T11:47:15.606Z,32.30
2019-05-25T11:48:27.812Z,32.00
2019-05-25T11:49:38.335Z,32.30
2019-05-25T11:50:42.939Z,31.50
2019-05-25T11:51:55.598Z,31.50
2019-05-25T11:53:05.530Z,31.40
2019-05-25T11:54:08.360Z,31.00
2019-05-25T11:55:25.793Z,30.70
2019-05-25T11:56:31.025Z,30.20
2019-05-25T11:57:50.688Z,30.40
2019-05-25T11:58:59.557Z,31.00
2019-05-25T12:00:05.659Z,30.50
2019-05-25T12:01:10.820Z,30.00
2019-05-25T12:02:16.362Z,30.00
2019-05-25T12:03:25.816Z,30.00
2019-05-25T12:04:31.849Z,30.20
2019-05-25T12:05:36.521Z,30.20
2019-05-25T12:06:43.701Z,30.80
2019-05-25T12:07:48.648Z,31.10
2019-05-25T12:08:55.917Z,31.80
2019-05-25T12:10:05.415Z,32.10
2019-05-25T12:11:10.845Z,32.70
2019-05-25T12:12:17.775Z,33.50
2019-05-25T12:13:23.051Z,34.00
2019-05-25T12:14:30.484Z,34.40
2019-05-25T12:15:37.087Z,34.50
2019-05-25T12:16:42.293Z,34.50
2019-05-25T12:17:52.598Z,34.70
2019-05-25T12:18:57.338Z,35.30
2019-05-25T12:20:02.619Z,54.60
2019-05-25T12:21:07.836Z,56.30
2019-05-25T12:22:19.189Z,55.30
2019-05-25T12:23:26.838Z,56.70
2019-05-25T12:24:32.237Z,54.80
2019-05-25T12:25:39.776Z,57.20
2019-05-25T12:26:46.639Z,58.30
2019-05-25T12:27:51.785Z,38.20
2019-05-25T12:28:57.474Z,38.30
2019-05-25T12:30:02.123Z,38.70
2019-05-25T12:31:10.606Z,39.20
2019-05-25T12:32:15.219Z,39.20
2019-05-25T12:33:21.108Z,39.50
2019-05-25T12:34:25.779Z,39.70
2019-05-25T12:35:33.128Z,40.80
2019-05-25T12:36:37.996Z,42.70
2019-05-25T12:37:43.659Z,42.50
2019-05-25T12:38:48.465Z,42.90
2019-05-25T12:39:54.636Z,43.30
2019-05-25T12:41:00.227Z,42.60
2019-05-25T12:42:05.534Z,42.20
2019-05-25T12:43:11.925Z,42.20
2019-05-25T12:44:18.165Z,44.10
2019-05-25T12:45:42.479Z,44.30
2019-05-25T12:46:47.921Z,43.70
2019-05-25T12:47:54.031Z,44.20
2019-05-25T12:49:04.742Z,44.50
2019-05-25T12:50:20.754Z,44.80
2019-05-25T12:51:48.635Z,46.80
2019-05-25T12:52:53.344Z,46.00
2019-05-25T12:54:08.543Z,45.00
2019-05-25T12:55:17.628Z,45.00
2019-05-25T12:56:23.952Z,46.00
2019-05-25T12:57:31.642Z,45.80
2019-05-25T12:58:42.751Z,45.40
2019-05-25T12:59:47.403Z,46.40
2019-05-25T13:00:56.009Z,45.60
2019-05-25T13:02:02.635Z,46.40
2019-05-25T13:03:10.929Z,45.70
2019-05-25T13:04:14.454Z,45.90
2019-05-25T13:05:32.964Z,47.20
2019-05-25T13:06:27.459Z,47.00
2019-05-25T13:07:33.214Z,46.10
2019-05-25T13:08:43.747Z,46.30
2019-05-25T13:09:47.622Z,46.00
2019-05-25T13:11:28.087Z,45.80
2019-05-25T13:12:42.200Z,45.50
2019-05-25T13:13:47.499Z,47.60
2019-05-25T13:14:52.235Z,48.00
2019-05-25T13:15:57.857Z,48.60
2019-05-25T13:17:03.003Z,49.00
2019-05-25T13:18:08.353Z,49.70
2019-05-25T13:19:15.323Z,49.10
2019-05-25T13:20:23.813Z,49.40
2019-05-25T13:21:29.027Z,49.10
2019-05-25T13:22:34.609Z,49.50
2019-05-25T13:23:42.356Z,49.50
2019-05-25T13:24:49.010Z,50.30
2019-05-25T13:25:53.735Z,49.20
2019-05-25T13:26:59.617Z,49.90
2019-05-25T13:28:05.311Z,51.00
2019-05-25T13:29:10.747Z,50.90
2019-05-25T13:30:16.849Z,51.80
2019-05-25T13:31:28.635Z,51.80
2019-05-25T13:32:33.359Z,51.60
2019-05-25T13:33:44.619Z,51.50
2019-05-25T13:34:49.626Z,52.30
2019-05-25T13:35:55.047Z,52.20
2019-05-25T13:37:01.847Z,51.20
2019-05-25T13:38:07.183Z,51.30
2019-05-25T13:39:12.216Z,52.50
2019-05-25T13:40:17.828Z,53.10
2019-05-25T13:41:22.671Z,53.10
2019-05-25T13:42:29.026Z,53.20
2019-05-25T13:43:34.198Z,52.10
2019-05-25T13:44:43.321Z,53.30
2019-05-25T13:45:49.113Z,52.20
2019-05-25T13:46:56.766Z,52.20
2019-05-25T13:48:03.582Z,52.80
2019-05-25T13:49:09.359Z,52.80
2019-05-25T13:50:15.125Z,53.10
2019-05-25T13:51:25.727Z,52.80
2019-05-25T13:52:31.184Z,53.80
2019-05-25T13:53:36.455Z,53.80
2019-05-25T13:54:42.959Z,54.80
2019-05-25T13:55:48.238Z,55.20
2019-05-25T13:56:53.672Z,55.00
2019-05-25T13:58:00.310Z,54.60
2019-05-25T13:59:05.118Z,54.30
2019-05-25T14:00:10.947Z,53.70
2019-05-25T14:01:27.969Z,53.60
2019-05-25T14:02:23.215Z,53.70
2019-05-25T14:03:28.026Z,54.30
2019-05-25T14:04:33.277Z,54.40
2019-05-25T14:05:39.506Z,54.30
2019-05-25T14:06:48.947Z,54.30
2019-05-25T14:07:57.042Z,54.10
2019-05-25T14:09:02.657Z,53.50
2019-05-25T14:10:08.820Z,53.80
2019-05-25T14:11:17.408Z,54.20
2019-05-25T14:12:23.126Z,54.10
2019-05-25T14:13:28.519Z,53.20
2019-05-25T14:14:33.587Z,53.40
2019-05-25T14:15:38.939Z,53.80
2019-05-25T14:16:43.942Z,54.80
2019-05-25T14:17:49.177Z,54.40
2019-05-25T14:18:54.019Z,55.30
2019-05-25T14:19:59.888Z,57.00
2019-05-25T14:21:05.301Z,57.40
2019-05-25T14:22:11.030Z,57.50
2019-05-25T14:23:16.083Z,56.60